createdAt,value
2018-09-06T00:01:44.164Z,12.67
2018-09-06T00:04:12.176Z,12.70
2018-09-06T00:06:40.187Z,12.07
2018-09-06T00:09:08.993Z,12.50
2018-09-06T00:11:38.192Z,12.37
2018-09-06T00:14:06.355Z,13.00
2018-09-06T00:16:34.456Z,12.13
2018-09-06T00:19:02.722Z,12.37
2018-09-06T00:21:30.782Z,12.50
2018-09-06T00:23:58.781Z,12.90
2018-09-06T00:26:26.893Z,13.30
2018-09-06T00:28:55.090Z,12.40
2018-09-06T00:31:23.070Z,13.03
2018-09-06T00:33:51.156Z,12.67
2018-09-06T00:36:19.215Z,12.37
2018-09-06T00:38:47.201Z,12.77
2018-09-06T00:41:15.164Z,12.07
2018-09-06T00:43:43.189Z,13.00
2018-09-06T00:46:11.161Z,13.03
2018-09-06T00:48:39.087Z,13.20
2018-09-06T00:51:07.056Z,13.60
2018-09-06T00:53:35.016Z,13.67
2018-09-06T00:56:03.063Z,12.77
2018-09-06T00:58:31.039Z,13.97
2018-09-06T01:00:59.027Z,12.80
2018-09-06T01:03:27.124Z,13.33
2018-09-06T01:05:55.073Z,12.43
2018-09-06T01:08:23.068Z,13.27
2018-09-06T01:10:51.056Z,12.43
2018-09-06T01:13:18.976Z,12.90
2018-09-06T01:15:47.008Z,13.30
2018-09-06T01:18:15.094Z,12.90
2018-09-06T01:20:43.107Z,13.13
2018-09-06T01:23:11.062Z,13.33
2018-09-06T01:25:44.517Z,12.40
2018-09-06T01:28:12.556Z,13.57
2018-09-06T01:30:40.601Z,13.37
2018-09-06T01:33:08.569Z,13.80
2018-09-06T01:35:36.519Z,13.50
2018-09-06T01:38:04.592Z,13.57
2018-09-06T01:40:32.551Z,13.43
2018-09-06T01:43:00.568Z,14.00
2018-09-06T01:45:28.573Z,13.80
2018-09-06T01:47:56.569Z,13.70
2018-09-06T01:50:24.597Z,13.37
2018-09-06T01:52:52.521Z,13.93
2018-09-06T01:55:20.518Z,13.67
2018-09-06T01:57:48.447Z,13.47
2018-09-06T02:00:16.432Z,13.13
2018-09-06T02:02:44.398Z,14.17
2018-09-06T02:05:16.605Z,12.77
2018-09-06T02:07:44.531Z,13.07
2018-09-06T02:10:12.502Z,14.13
2018-09-06T02:12:41.203Z,13.30
2018-09-06T02:15:09.157Z,12.23
2018-09-06T02:17:37.194Z,13.30
2018-09-06T02:20:05.117Z,13.70
2018-09-06T02:22:33.065Z,13.77
2018-09-06T02:25:00.996Z,13.63
2018-09-06T02:27:29.019Z,12.93
2018-09-06T02:29:56.988Z,13.27
2018-09-06T02:32:25.115Z,14.17
2018-09-06T02:34:53.052Z,13.07
2018-09-06T02:37:21.041Z,13.67
2018-09-06T02:39:50.398Z,13.43
2018-09-06T02:42:18.362Z,13.37
2018-09-06T02:44:46.336Z,13.10
2018-09-06T02:47:14.389Z,13.90
2018-09-06T02:49:47.743Z,13.33
2018-09-06T02:52:15.737Z,13.83
2018-09-06T02:54:43.721Z,14.90
2018-09-06T02:57:11.975Z,15.00
2018-09-06T02:59:39.908Z,13.70
2018-09-06T03:02:07.881Z,13.27
2018-09-06T03:04:35.806Z,13.07
2018-09-06T03:07:03.809Z,12.50
2018-09-06T03:09:31.776Z,13.97
2018-09-06T03:12:02.231Z,13.40
2018-09-06T03:14:30.182Z,13.53
2018-09-06T03:16:58.263Z,13.47
2018-09-06T03:19:26.560Z,12.97
2018-09-06T03:21:54.626Z,12.80
2018-09-06T03:24:22.647Z,13.57
2018-09-06T03:26:50.728Z,13.60
2018-09-06T03:29:18.696Z,13.80
2018-09-06T03:31:46.832Z,13.73
2018-09-06T03:34:14.840Z,14.10
2018-09-06T03:36:42.932Z,13.50
2018-09-06T03:39:11.059Z,13.07
2018-09-06T03:41:39.425Z,13.37
2018-09-06T03:44:07.476Z,13.20
2018-09-06T03:46:35.462Z,13.40
2018-09-06T03:49:03.463Z,13.27
2018-09-06T03:51:31.521Z,12.63
2018-09-06T03:53:59.513Z,12.70
2018-09-06T03:56:27.499Z,13.47
2018-09-06T03:58:55.520Z,13.67
2018-09-06T04:01:23.674Z,13.77
2018-09-06T04:03:51.635Z,13.30
2018-09-06T04:06:19.628Z,13.43
2018-09-06T04:08:47.607Z,13.87
2018-09-06T04:11:15.745Z,13.30
2018-09-06T04:13:43.798Z,13.20
2018-09-06T04:16:11.971Z,13.37
2018-09-06T04:18:40.046Z,13.20
2018-09-06T04:21:08.155Z,13.93
2018-09-06T04:23:36.214Z,12.90
2018-09-06T04:26:04.423Z,14.00
2018-09-06T04:28:32.609Z,13.70
2018-09-06T04:31:00.651Z,13.80
2018-09-06T04:33:28.740Z,13.40
2018-09-06T04:35:56.768Z,14.60
2018-09-06T04:38:25.761Z,14.67
2018-09-06T04:40:53.724Z,14.37
2018-09-06T04:43:21.703Z,14.37
2018-09-06T04:45:49.686Z,14.10
2018-09-06T04:48:17.792Z,13.33
2018-09-06T04:50:45.867Z,15.00
2018-09-06T04:53:14.255Z,15.00
2018-09-06T04:55:42.323Z,13.73
2018-09-06T04:58:10.261Z,15.60
2018-09-06T05:00:38.253Z,15.87
2018-09-06T05:03:06.262Z,15.30
2018-09-06T05:05:34.232Z,15.40
2018-09-06T05:08:02.387Z,15.03
2018-09-06T05:10:30.445Z,14.93
2018-09-06T05:12:58.417Z,14.43
2018-09-06T05:15:26.428Z,14.37
2018-09-06T05:17:54.580Z,15.23
2018-09-06T05:20:22.608Z,15.25
2018-09-06T05:22:50.520Z,15.30
2018-09-06T05:25:18.577Z,15.07
2018-09-06T05:27:46.553Z,15.13
2018-09-06T05:30:14.967Z,15.55
2018-09-06T05:32:42.969Z,16.00
2018-09-06T05:35:11.133Z,15.40
2018-09-06T05:37:39.161Z,14.80
2018-09-06T05:40:07.515Z,15.10
2018-09-06T05:42:35.587Z,14.93
2018-09-06T05:45:03.656Z,15.20
2018-09-06T05:47:31.984Z,16.30
2018-09-06T05:49:59.894Z,14.50
2018-09-06T05:52:27.872Z,15.73
2018-09-06T05:54:55.963Z,15.98
2018-09-06T05:57:24.009Z,16.13
2018-09-06T05:59:52.254Z,16.30
2018-09-06T06:02:20.149Z,15.67
2018-09-06T06:04:48.161Z,17.50
2018-09-06T06:07:16.164Z,16.90
2018-09-06T06:09:44.213Z,16.40
2018-09-06T06:12:12.208Z,15.67
2018-09-06T06:14:40.189Z,17.03
2018-09-06T06:17:08.208Z,16.53
2018-09-06T06:19:36.383Z,15.90
2018-09-06T06:22:04.404Z,16.40
2018-09-06T06:24:32.412Z,15.90
2018-09-06T06:27:00.455Z,18.50
2018-09-06T06:29:28.606Z,17.27
2018-09-06T06:31:56.711Z,15.87
2018-09-06T06:34:24.928Z,21.57
2018-09-06T06:36:52.891Z,17.50
2018-09-06T06:39:20.914Z,16.07
2018-09-06T06:41:48.864Z,16.27
2018-09-06T06:44:16.868Z,16.00
2018-09-06T06:46:44.964Z,16.60
2018-09-06T06:49:12.928Z,17.03
2018-09-06T06:51:40.872Z,17.90
2018-09-06T06:54:08.838Z,17.30
2018-09-06T06:56:36.759Z,19.57
2018-09-06T06:59:04.857Z,17.90
2018-09-06T07:01:32.813Z,18.10
2018-09-06T07:04:00.931Z,17.20
2018-09-06T07:06:28.887Z,17.97
2018-09-06T07:08:56.986Z,17.70
2018-09-06T07:11:25.018Z,16.27
2018-09-06T07:13:52.964Z,16.53
2018-09-06T07:16:21.057Z,16.87
2018-09-06T07:18:49.028Z,16.40
2018-09-06T07:21:16.974Z,16.80
2018-09-06T07:23:44.980Z,17.57
2018-09-06T07:26:12.960Z,16.50
2018-09-06T07:28:40.949Z,15.77
2018-09-06T07:31:09.028Z,16.43
2018-09-06T07:33:37.025Z,16.47
2018-09-06T07:36:04.977Z,16.45
2018-09-06T07:38:33.076Z,16.20
2018-09-06T07:41:01.067Z,16.27
2018-09-06T07:43:29.055Z,16.27
2018-09-06T07:45:57.112Z,16.60
2018-09-06T07:48:25.057Z,15.73
2018-09-06T07:50:53.105Z,16.00
2018-09-06T07:53:21.043Z,16.07
2018-09-06T07:55:49.051Z,15.38
2018-09-06T07:58:17.844Z,15.18
2018-09-06T08:00:45.808Z,15.20
2018-09-06T08:03:13.813Z,14.00
2018-09-06T08:05:42.306Z,14.43
2018-09-06T08:08:10.498Z,13.97
2018-09-06T08:10:38.721Z,14.80
2018-09-06T08:13:06.676Z,15.50
2018-09-06T08:15:34.778Z,14.30
2018-09-06T08:18:02.824Z,13.93
2018-09-06T08:20:30.768Z,13.20
2018-09-06T08:22:58.767Z,14.50
2018-09-06T08:25:26.807Z,13.57
2018-09-06T08:27:54.851Z,14.70
2018-09-06T08:30:22.853Z,13.17
2018-09-06T08:32:50.940Z,13.83
2018-09-06T08:35:19.181Z,13.77
2018-09-06T08:37:47.165Z,13.60
2018-09-06T08:40:15.380Z,14.10
2018-09-06T08:42:43.485Z,14.23
2018-09-06T08:45:11.572Z,13.60
2018-09-06T08:47:39.670Z,13.20
2018-09-06T08:50:07.535Z,13.17
2018-09-06T08:52:35.563Z,12.70
2018-09-06T08:55:18.510Z,13.03
2018-09-06T08:57:46.577Z,13.47
2018-09-06T09:00:14.533Z,13.27
2018-09-06T09:02:42.757Z,13.10
2018-09-06T09:05:10.642Z,12.87
2018-09-06T09:07:38.753Z,12.93
2018-09-06T09:10:06.664Z,12.70
2018-09-06T09:12:34.792Z,12.10
2018-09-06T09:15:02.752Z,12.40
2018-09-06T09:17:31.069Z,12.30
2018-09-06T09:19:59.160Z,12.13
2018-09-06T09:22:27.357Z,12.37
2018-09-06T09:24:55.357Z,12.60
2018-09-06T09:27:23.399Z,11.80
2018-09-06T09:29:51.468Z,12.37
2018-09-06T09:32:19.766Z,12.95
2018-09-06T09:34:47.807Z,11.90
2018-09-06T09:37:15.933Z,11.80
2018-09-06T09:39:43.924Z,12.20
2018-09-06T09:42:11.896Z,11.03
2018-09-06T09:44:39.982Z,12.07
2018-09-06T09:49:35.285Z,11.50
2018-09-06T09:52:03.320Z,10.60
2018-09-06T09:54:31.295Z,11.80
2018-09-06T09:56:59.334Z,10.40
2018-09-06T09:59:27.239Z,10.97
2018-09-06T10:02:00.699Z,9.90
2018-09-06T10:05:35.908Z,11.00
2018-09-06T10:08:08.148Z,11.10
2018-09-06T10:10:36.100Z,10.83
2018-09-06T10:13:04.085Z,11.13
2018-09-06T10:15:32.123Z,11.10
2018-09-06T10:18:00.153Z,10.80
2018-09-06T10:20:28.127Z,10.37
2018-09-06T10:22:56.107Z,10.80
2018-09-06T10:25:24.062Z,11.23
2018-09-06T10:27:52.004Z,11.40
2018-09-06T10:30:21.283Z,10.80
2018-09-06T10:32:49.324Z,10.40
2018-09-06T10:35:17.282Z,10.60
2018-09-06T10:37:45.412Z,11.57
2018-09-06T10:40:13.400Z,12.70
2018-09-06T10:42:41.484Z,12.80
2018-09-06T10:45:09.420Z,12.97
2018-09-06T10:47:37.467Z,15.20
2018-09-06T10:50:05.550Z,12.33
2018-09-06T10:52:33.732Z,12.57
2018-09-06T10:55:01.889Z,12.70
2018-09-06T10:57:29.923Z,12.33
2018-09-06T10:59:57.978Z,12.53
2018-09-06T11:02:26.284Z,11.70
2018-09-06T11:04:55.012Z,11.00
2018-09-06T11:07:23.229Z,10.60
2018-09-06T11:09:51.334Z,11.37
2018-09-06T11:12:19.316Z,10.20
2018-09-06T11:14:47.309Z,9.90
2018-09-06T11:17:15.407Z,10.07
2018-09-06T11:19:43.371Z,11.37
2018-09-06T11:22:11.496Z,11.40
2018-09-06T11:24:39.300Z,10.50
2018-09-06T11:27:07.276Z,10.30
2018-09-06T11:29:35.272Z,9.43
2018-09-06T11:32:03.220Z,10.20
2018-09-06T11:34:32.081Z,10.13
2018-09-06T11:37:00.343Z,9.83
2018-09-06T11:39:28.449Z,9.43
2018-09-06T11:41:56.522Z,9.83
2018-09-06T11:44:24.463Z,9.93
2018-09-06T11:46:52.592Z,10.27
2018-09-06T11:49:20.440Z,9.90
2018-09-06T11:51:48.433Z,10.40
2018-09-06T11:54:16.387Z,9.80
2018-09-06T11:56:44.343Z,9.13
2018-09-06T11:59:12.296Z,9.63
2018-09-06T12:01:40.280Z,9.53
2018-09-06T12:04:08.348Z,9.50
2018-09-06T12:06:36.288Z,9.63
2018-09-06T12:09:05.734Z,9.87
2018-09-06T12:11:33.843Z,10.20
2018-09-06T12:14:01.975Z,10.70
2018-09-06T12:16:30.051Z,9.70
2018-09-06T12:18:58.178Z,10.30
2018-09-06T12:21:26.162Z,9.97
2018-09-06T12:23:54.271Z,9.37
2018-09-06T12:26:22.768Z,9.43
2018-09-06T12:28:50.893Z,9.70
2018-09-06T12:31:18.939Z,9.43
2018-09-06T12:33:46.880Z,9.10
2018-09-06T12:36:14.832Z,9.37
2018-09-06T12:38:43.079Z,9.37
2018-09-06T12:41:11.047Z,9.63
2018-09-06T12:43:39.027Z,10.60
2018-09-06T12:46:07.014Z,9.83
2018-09-06T12:48:34.964Z,10.00
2018-09-06T12:51:02.944Z,9.73
2018-09-06T12:53:30.922Z,9.77
2018-09-06T12:55:59.015Z,9.87
2018-09-06T12:58:27.015Z,9.27
2018-09-06T13:00:55.008Z,10.50
2018-09-06T13:03:23.818Z,11.10
2018-09-06T13:05:51.784Z,10.10
2018-09-06T13:08:19.842Z,11.07
2018-09-06T13:10:47.808Z,9.83
2018-09-06T13:13:15.827Z,10.10
2018-09-06T13:15:43.793Z,10.00
2018-09-06T13:18:11.856Z,12.00
2018-09-06T13:20:39.820Z,11.10
2018-09-06T13:23:07.769Z,10.90
2018-09-06T13:25:35.744Z,10.70
2018-09-06T13:28:03.730Z,10.70
2018-09-06T13:30:31.712Z,10.93
2018-09-06T13:32:59.773Z,11.13
2018-09-06T13:35:27.872Z,10.90
2018-09-06T13:37:55.823Z,11.03
2018-09-06T13:40:24.071Z,11.20
2018-09-06T13:42:52.131Z,11.17
2018-09-06T13:45:20.112Z,11.10
2018-09-06T13:47:48.152Z,10.60
2018-09-06T13:50:16.124Z,11.00
2018-09-06T13:52:44.091Z,11.40
2018-09-06T13:55:12.102Z,11.60
2018-09-06T13:57:40.067Z,14.07
2018-09-06T14:00:08.434Z,15.03
2018-09-06T14:02:36.334Z,16.40
2018-09-06T14:05:04.434Z,17.07
2018-09-06T14:07:32.452Z,15.30
2018-09-06T14:10:00.538Z,14.37
2018-09-06T14:12:28.553Z,15.05
2018-09-06T14:14:56.547Z,16.10
2018-09-06T14:17:24.578Z,16.55
2018-09-06T14:19:52.573Z,17.67
2018-09-06T14:22:20.604Z,19.20
2018-09-06T14:24:48.610Z,20.13
2018-09-06T14:27:17.799Z,23.70
2018-09-06T14:29:45.753Z,22.93
2018-09-06T14:32:14.075Z,22.70
2018-09-06T14:34:42.019Z,24.13
2018-09-06T14:37:10.028Z,24.07
2018-09-06T14:39:38.083Z,24.37
2018-09-06T14:42:06.044Z,24.20
2018-09-06T14:44:34.268Z,24.00
2018-09-06T14:47:02.312Z,24.90
2018-09-06T14:49:30.321Z,25.10
2018-09-06T14:51:58.379Z,24.10
2018-09-06T14:54:26.436Z,23.87
2018-09-06T14:56:55.210Z,23.73
2018-09-06T14:59:23.345Z,24.30
2018-09-06T15:01:51.363Z,23.87
2018-09-06T15:04:19.355Z,24.17
2018-09-06T15:06:47.416Z,23.17
2018-09-06T15:09:15.630Z,22.80
2018-09-06T15:11:43.700Z,22.87
2018-09-06T15:14:11.748Z,22.85
2018-09-06T15:16:39.980Z,22.70
2018-09-06T15:19:08.152Z,23.80
2018-09-06T15:21:36.144Z,21.53
2018-09-06T15:24:04.241Z,23.37
2018-09-06T15:26:32.253Z,23.77
2018-09-06T15:29:00.321Z,23.60
2018-09-06T15:31:28.643Z,24.60
2018-09-06T15:33:56.723Z,23.50
2018-09-06T15:36:25.652Z,23.10
2018-09-06T15:38:53.973Z,23.00
2018-09-06T15:41:22.264Z,22.93
2018-09-06T15:43:50.270Z,22.80
2018-09-06T15:46:18.862Z,22.40
2018-09-06T15:48:47.292Z,25.70
2018-09-06T15:51:15.256Z,21.87
2018-09-06T15:53:43.283Z,22.13
2018-09-06T15:56:11.247Z,22.00
2018-09-06T15:58:39.215Z,23.40
2018-09-06T16:01:07.424Z,22.50
2018-09-06T16:03:35.423Z,23.00
2018-09-06T16:06:04.256Z,23.47
2018-09-06T16:08:32.316Z,22.03
2018-09-06T16:11:00.306Z,22.53
2018-09-06T16:13:28.506Z,23.30
2018-09-06T16:15:56.890Z,24.53
2018-09-06T16:18:24.914Z,23.17
2018-09-06T16:20:52.872Z,22.03
2018-09-06T16:23:20.856Z,22.40
2018-09-06T16:25:49.009Z,21.83
2018-09-06T16:28:17.239Z,21.77
2018-09-06T16:30:45.293Z,21.67
2018-09-06T16:33:13.381Z,21.80
2018-09-06T16:35:41.351Z,20.33
2018-09-06T16:38:09.497Z,21.60
2018-09-06T16:40:37.446Z,21.60
2018-09-06T16:43:05.725Z,20.83
2018-09-06T16:45:33.683Z,20.75
2018-09-06T16:48:01.802Z,21.20
2018-09-06T16:50:29.837Z,19.87
2018-09-06T16:52:58.173Z,20.27
2018-09-06T16:55:26.884Z,21.40
2018-09-06T16:57:54.919Z,21.27
2018-09-06T17:00:22.869Z,20.90
2018-09-06T17:02:51.063Z,21.03
2018-09-06T17:05:19.730Z,21.03
2018-09-06T17:07:47.760Z,22.00
2018-09-06T17:10:15.728Z,21.03
2018-09-06T17:12:43.928Z,21.77
2018-09-06T17:15:11.872Z,21.00
2018-09-06T17:17:39.851Z,19.87
2018-09-06T17:20:08.063Z,20.90
2018-09-06T17:22:36.056Z,21.20
2018-09-06T17:25:04.113Z,21.27
2018-09-06T17:27:32.212Z,22.00
2018-09-06T17:30:00.299Z,22.10
2018-09-06T17:32:28.282Z,23.13
2018-09-06T17:34:56.246Z,22.60
2018-09-06T17:37:24.250Z,21.40
2018-09-06T17:39:52.302Z,22.03
2018-09-06T17:42:20.571Z,23.47
2018-09-06T17:44:48.551Z,23.50
2018-09-06T17:47:16.562Z,24.50
2018-09-06T17:49:44.558Z,24.80
2018-09-06T17:52:12.654Z,26.93
2018-09-06T17:54:40.753Z,25.25
2018-09-06T17:57:08.914Z,26.17
2018-09-06T17:59:36.889Z,26.03
2018-09-06T18:02:04.867Z,25.80
2018-09-06T18:04:32.936Z,26.60
2018-09-06T18:07:00.861Z,25.33
2018-09-06T18:09:29.028Z,25.63
2018-09-06T18:11:57.921Z,25.07
2018-09-06T18:14:25.961Z,26.50
2018-09-06T18:16:53.959Z,26.27
2018-09-06T18:19:21.963Z,26.40
2018-09-06T18:21:49.955Z,24.30
2018-09-06T18:24:18.028Z,24.77
2018-09-06T18:26:45.957Z,23.13
2018-09-06T18:29:13.948Z,23.87
2018-09-06T18:31:41.945Z,24.00
2018-09-06T18:34:09.978Z,24.50
2018-09-06T18:36:37.928Z,21.97
2018-09-06T18:39:06.799Z,20.20
2018-09-06T18:41:34.876Z,22.03
2018-09-06T18:44:03.061Z,22.03
2018-09-06T18:46:31.023Z,22.17
2018-09-06T18:48:59.012Z,21.17
2018-09-06T18:51:26.989Z,23.60
2018-09-06T18:53:54.952Z,21.33
2018-09-06T18:56:23.004Z,21.40
2018-09-06T18:58:50.990Z,22.00
2018-09-06T19:01:19.179Z,22.60
2018-09-06T19:03:47.094Z,22.00
2018-09-06T19:06:15.131Z,22.73
2018-09-06T19:08:43.148Z,22.60
2018-09-06T19:11:11.211Z,22.70
2018-09-06T19:13:39.178Z,23.10
2018-09-06T19:16:07.174Z,22.70
2018-09-06T19:18:35.131Z,23.70
2018-09-06T19:21:03.136Z,25.23
2018-09-06T19:23:31.164Z,24.07
2018-09-06T19:25:59.620Z,23.80
2018-09-06T19:28:27.640Z,23.93
2018-09-06T19:30:55.656Z,23.97
2018-09-06T19:33:23.628Z,23.33
2018-09-06T19:35:51.588Z,24.10
2018-09-06T19:38:19.540Z,22.73
2018-09-06T19:40:47.724Z,23.37
2018-09-06T19:43:15.782Z,22.30
2018-09-06T19:45:43.716Z,24.50
2018-09-06T19:48:11.715Z,25.80
2018-09-06T19:50:39.700Z,26.60
2018-09-06T19:53:07.749Z,26.23
2018-09-06T19:55:35.681Z,25.57
2018-09-06T19:58:03.635Z,26.67
2018-09-06T20:00:31.755Z,26.10
2018-09-06T20:02:59.693Z,27.00
2018-09-06T20:05:27.680Z,27.70
2018-09-06T20:07:55.717Z,28.10
2018-09-06T20:10:23.621Z,26.63
2018-09-06T20:12:51.743Z,27.03
2018-09-06T20:15:19.943Z,27.80
2018-09-06T20:17:48.131Z,32.10
2018-09-06T20:20:16.089Z,30.00
2018-09-06T20:22:44.031Z,30.00
2018-09-06T20:25:12.025Z,26.95
2018-09-06T20:27:39.996Z,28.57
2018-09-06T20:30:07.945Z,29.00
2018-09-06T20:32:36.036Z,28.00
2018-09-06T20:35:04.005Z,28.80
2018-09-06T20:37:31.985Z,30.07
2018-09-06T20:40:00.046Z,26.23
2018-09-06T20:42:28.077Z,26.47
2018-09-06T20:44:56.185Z,26.47
2018-09-06T20:47:24.240Z,26.93
2018-09-06T20:49:52.189Z,26.53
2018-09-06T20:52:20.275Z,28.83
2018-09-06T20:54:48.230Z,26.73
2018-09-06T20:57:16.231Z,29.57
2018-09-06T20:59:44.201Z,31.23
2018-09-06T21:02:17.725Z,30.00
2018-09-06T21:04:45.672Z,32.13
2018-09-06T21:07:13.708Z,28.03
2018-09-06T21:09:41.671Z,31.83
2018-09-06T21:12:09.630Z,31.37
2018-09-06T21:14:37.696Z,29.90
2018-09-06T21:17:05.332Z,31.77
2018-09-06T21:19:33.396Z,32.80
2018-09-06T21:22:01.409Z,31.47
2018-09-06T21:24:30.380Z,29.80
2018-09-06T21:26:58.364Z,31.17
2018-09-06T21:29:26.364Z,31.90
2018-09-06T21:31:54.339Z,33.90
2018-09-06T21:34:22.295Z,33.50
2018-09-06T21:36:50.274Z,36.83
2018-09-06T21:39:18.233Z,38.10
2018-09-06T21:41:46.204Z,35.97
2018-09-06T21:44:14.164Z,39.80
2018-09-06T21:46:42.147Z,39.20
2018-09-06T21:49:10.288Z,37.33
2018-09-06T21:51:38.610Z,39.37
2018-09-06T21:54:06.663Z,41.10
2018-09-06T21:56:34.664Z,42.40
2018-09-06T21:59:02.619Z,45.13
2018-09-06T22:01:30.907Z,45.65
2018-09-06T22:04:04.059Z,45.77
2018-09-06T22:06:32.059Z,45.07
2018-09-06T22:09:00.951Z,47.70
2018-09-06T22:11:28.932Z,47.00
2018-09-06T22:13:56.896Z,42.03
2018-09-06T22:16:25.374Z,44.87
2018-09-06T22:18:53.423Z,45.23
2018-09-06T22:21:21.385Z,42.93
2018-09-06T22:23:49.400Z,47.43
2018-09-06T22:26:17.413Z,47.73
2018-09-06T22:28:45.380Z,46.50
2018-09-06T22:31:13.304Z,50.37
2018-09-06T22:33:41.264Z,49.23
2018-09-06T22:36:09.195Z,49.47
2018-09-06T22:38:37.185Z,51.80
2018-09-06T22:41:05.136Z,50.67
2018-09-06T22:43:33.123Z,47.30
2018-09-06T22:46:01.862Z,49.30
2018-09-06T22:48:29.928Z,53.53
2018-09-06T22:50:57.932Z,52.73
2018-09-06T22:53:26.141Z,52.20
2018-09-06T22:55:54.079Z,49.33
2018-09-06T22:58:22.052Z,52.00
2018-09-06T23:00:50.024Z,50.50
2018-09-06T23:03:23.588Z,49.50
2018-09-06T23:05:51.563Z,50.00
2018-09-06T23:08:19.504Z,48.63
2018-09-06T23:10:47.443Z,52.13
2018-09-06T23:13:15.476Z,52.60
2018-09-06T23:15:43.481Z,51.60
2018-09-06T23:18:11.468Z,49.17
2018-09-06T23:20:39.431Z,50.80
2018-09-06T23:23:07.387Z,50.30
2018-09-06T23:25:35.338Z,51.33
2018-09-06T23:28:03.343Z,48.80
2018-09-06T23:30:31.920Z,46.18
2018-09-06T23:32:59.951Z,46.67
2018-09-06T23:35:27.969Z,43.50
2018-09-06T23:37:55.971Z,45.67
2018-09-06T23:40:23.908Z,42.10
2018-09-06T23:42:51.962Z,45.90
2018-09-06T23:45:20.048Z,45.47
2018-09-06T23:47:47.979Z,44.83
2018-09-06T23:50:15.966Z,45.80
2018-09-06T23:52:44.012Z,43.00
2018-09-06T23:55:12.076Z,44.60
2018-09-06T23:57:40.085Z,44.67
